sensor_id;sensor_type;location;lat;lon;timestamp;P1;durP1;ratioP1;P2;durP2;ratioP2
48685;SDS011;34485;51.536;3.816;2023-06-24T00:00:45;5.47;;;3.47;;
48685;SDS011;34485;51.536;3.816;2023-06-24T00:03:11;4.07;;;3.67;;
48685;SDS011;34485;51.536;3.816;2023-06-24T00:05:37;3.47;;;3.17;;
48685;SDS011;34485;51.536;3.816;2023-06-24T00:08:04;6.20;;;3.42;;
48685;SDS011;34485;51.536;3.816;2023-06-24T00:10:31;3.60;;;3.30;;
48685;SDS011;34485;51.536;3.816;2023-06-24T00:12:57;4.28;;;3.35;;
48685;SDS011;34485;51.536;3.816;2023-06-24T00:15:26;4.22;;;3.83;;
48685;SDS011;34485;51.536;3.816;2023-06-24T00:17:52;6.00;;;3.33;;
48685;SDS011;34485;51.536;3.816;2023-06-24T00:20:18;5.68;;;3.60;;
48685;SDS011;34485;51.536;3.816;2023-06-24T00:22:44;5.35;;;4.30;;
48685;SDS011;34485;51.536;3.816;2023-06-24T00:25:14;9.60;;;3.60;;
48685;SDS011;34485;51.536;3.816;2023-06-24T00:27:40;4.03;;;3.72;;
48685;SDS011;34485;51.536;3.816;2023-06-24T00:30:07;5.07;;;4.32;;
48685;SDS011;34485;51.536;3.816;2023-06-24T00:32:33;6.70;;;3.80;;
48685;SDS011;34485;51.536;3.816;2023-06-24T00:34:59;4.70;;;3.73;;
48685;SDS011;34485;51.536;3.816;2023-06-24T00:37:25;5.47;;;3.47;;
48685;SDS011;34485;51.536;3.816;2023-06-24T00:39:50;4.03;;;3.30;;
48685;SDS011;34485;51.536;3.816;2023-06-24T00:42:16;4.55;;;3.95;;
48685;SDS011;34485;51.536;3.816;2023-06-24T00:44:42;5.18;;;4.00;;
48685;SDS011;34485;51.536;3.816;2023-06-24T00:47:08;5.40;;;3.67;;
48685;SDS011;34485;51.536;3.816;2023-06-24T00:49:35;6.72;;;4.20;;
48685;SDS011;34485;51.536;3.816;2023-06-24T00:52:01;5.05;;;3.38;;
48685;SDS011;34485;51.536;3.816;2023-06-24T00:54:26;4.55;;;3.47;;
48685;SDS011;34485;51.536;3.816;2023-06-24T00:56:56;5.57;;;3.83;;
48685;SDS011;34485;51.536;3.816;2023-06-24T00:59:25;4.80;;;4.40;;
48685;SDS011;34485;51.536;3.816;2023-06-24T01:01:55;5.22;;;3.85;;
48685;SDS011;34485;51.536;3.816;2023-06-24T01:04:20;3.53;;;3.23;;
48685;SDS011;34485;51.536;3.816;2023-06-24T01:06:46;6.85;;;3.70;;
48685;SDS011;34485;51.536;3.816;2023-06-24T01:09:12;3.67;;;3.13;;
48685;SDS011;34485;51.536;3.816;2023-06-24T01:11:38;4.10;;;3.35;;
48685;SDS011;34485;51.536;3.816;2023-06-24T01:14:04;3.80;;;3.50;;
48685;SDS011;34485;51.536;3.816;2023-06-24T01:16:36;3.70;;;3.40;;
48685;SDS011;34485;51.536;3.816;2023-06-24T01:19:19;3.67;;;3.28;;
48685;SDS011;34485;51.536;3.816;2023-06-24T01:22:04;5.55;;;3.70;;
48685;SDS011;34485;51.536;3.816;2023-06-24T01:25:06;6.20;;;3.15;;
48685;SDS011;34485;51.536;3.816;2023-06-24T01:27:32;5.03;;;3.30;;
48685;SDS011;34485;51.536;3.816;2023-06-24T01:30:22;4.83;;;3.63;;
48685;SDS011;34485;51.536;3.816;2023-06-24T01:33:04;3.55;;;3.17;;
48685;SDS011;34485;51.536;3.816;2023-06-24T01:35:35;4.35;;;3.58;;
48685;SDS011;34485;51.536;3.816;2023-06-24T01:38:03;4.32;;;3.08;;
48685;SDS011;34485;51.536;3.816;2023-06-24T01:40:37;4.35;;;3.50;;
48685;SDS011;34485;51.536;3.816;2023-06-24T01:43:08;3.33;;;2.73;;
48685;SDS011;34485;51.536;3.816;2023-06-24T01:45:41;7.43;;;3.38;;
48685;SDS011;34485;51.536;3.816;2023-06-24T01:48:16;4.70;;;3.38;;
48685;SDS011;34485;51.536;3.816;2023-06-24T01:51:09;4.25;;;3.60;;
48685;SDS011;34485;51.536;3.816;2023-06-24T01:53:37;4.57;;;4.18;;
48685;SDS011;34485;51.536;3.816;2023-06-24T01:56:07;6.70;;;3.87;;
48685;SDS011;34485;51.536;3.816;2023-06-24T01:58:37;7.35;;;3.92;;
48685;SDS011;34485;51.536;3.816;2023-06-24T02:01:05;5.40;;;3.67;;
48685;SDS011;34485;51.536;3.816;2023-06-24T02:03:32;7.38;;;4.00;;
48685;SDS011;34485;51.536;3.816;2023-06-24T02:05:59;4.85;;;4.38;;
48685;SDS011;34485;51.536;3.816;2023-06-24T02:08:28;5.27;;;3.53;;
48685;SDS011;34485;51.536;3.816;2023-06-24T02:10:55;5.45;;;3.60;;
48685;SDS011;34485;51.536;3.816;2023-06-24T02:13:23;7.45;;;4.30;;
48685;SDS011;34485;51.536;3.816;2023-06-24T02:15:49;5.03;;;3.90;;
48685;SDS011;34485;51.536;3.816;2023-06-24T02:18:17;8.27;;;3.92;;
48685;SDS011;34485;51.536;3.816;2023-06-24T02:20:44;6.43;;;3.97;;
48685;SDS011;34485;51.536;3.816;2023-06-24T02:23:12;6.90;;;4.63;;
48685;SDS011;34485;51.536;3.816;2023-06-24T02:25:39;11.93;;;4.65;;
48685;SDS011;34485;51.536;3.816;2023-06-24T02:28:06;4.68;;;4.18;;
48685;SDS011;34485;51.536;3.816;2023-06-24T02:30:37;13.63;;;4.68;;
48685;SDS011;34485;51.536;3.816;2023-06-24T02:33:04;4.37;;;3.97;;
48685;SDS011;34485;51.536;3.816;2023-06-24T02:35:30;5.55;;;4.93;;
48685;SDS011;34485;51.536;3.816;2023-06-24T02:37:55;7.65;;;4.90;;
48685;SDS011;34485;51.536;3.816;2023-06-24T02:40:21;7.07;;;4.70;;
48685;SDS011;34485;51.536;3.816;2023-06-24T02:42:47;5.32;;;4.82;;
48685;SDS011;34485;51.536;3.816;2023-06-24T02:45:12;5.40;;;4.90;;
48685;SDS011;34485;51.536;3.816;2023-06-24T02:47:40;11.13;;;5.25;;
48685;SDS011;34485;51.536;3.816;2023-06-24T02:50:09;5.72;;;5.22;;
48685;SDS011;34485;51.536;3.816;2023-06-24T02:52:35;6.82;;;4.63;;
48685;SDS011;34485;51.536;3.816;2023-06-24T02:55:02;8.53;;;5.03;;
48685;SDS011;34485;51.536;3.816;2023-06-24T02:57:29;11.45;;;5.38;;
48685;SDS011;34485;51.536;3.816;2023-06-24T02:59:55;10.05;;;5.47;;
48685;SDS011;34485;51.536;3.816;2023-06-24T03:02:21;7.90;;;5.17;;
48685;SDS011;34485;51.536;3.816;2023-06-24T03:04:48;10.00;;;5.40;;
48685;SDS011;34485;51.536;3.816;2023-06-24T03:07:15;10.15;;;4.80;;
48685;SDS011;34485;51.536;3.816;2023-06-24T03:09:45;11.73;;;5.70;;
48685;SDS011;34485;51.536;3.816;2023-06-24T03:12:11;6.90;;;5.70;;
48685;SDS011;34485;51.536;3.816;2023-06-24T03:14:37;10.05;;;6.00;;
48685;SDS011;34485;51.536;3.816;2023-06-24T03:17:02;6.73;;;6.03;;
48685;SDS011;34485;51.536;3.816;2023-06-24T03:19:28;10.00;;;6.78;;
48685;SDS011;34485;51.536;3.816;2023-06-24T03:21:54;11.23;;;6.00;;
48685;SDS011;34485;51.536;3.816;2023-06-24T03:24:20;8.37;;;5.67;;
48685;SDS011;34485;51.536;3.816;2023-06-24T03:26:46;15.30;;;6.32;;
48685;SDS011;34485;51.536;3.816;2023-06-24T03:29:12;13.20;;;6.70;;
48685;SDS011;34485;51.536;3.816;2023-06-24T03:31:37;6.90;;;5.37;;
48685;SDS011;34485;51.536;3.816;2023-06-24T03:34:08;11.38;;;6.70;;
48685;SDS011;34485;51.536;3.816;2023-06-24T03:36:35;6.60;;;5.22;;
48685;SDS011;34485;51.536;3.816;2023-06-24T03:39:03;8.25;;;5.43;;
48685;SDS011;34485;51.536;3.816;2023-06-24T03:41:29;8.82;;;6.07;;
48685;SDS011;34485;51.536;3.816;2023-06-24T03:43:55;9.73;;;6.40;;
48685;SDS011;34485;51.536;3.816;2023-06-24T03:46:20;7.70;;;6.83;;
48685;SDS011;34485;51.536;3.816;2023-06-24T03:48:46;9.20;;;6.25;;
48685;SDS011;34485;51.536;3.816;2023-06-24T03:51:12;7.13;;;5.55;;
48685;SDS011;34485;51.536;3.816;2023-06-24T03:53:38;7.37;;;5.80;;
48685;SDS011;34485;51.536;3.816;2023-06-24T03:56:04;6.78;;;5.50;;
48685;SDS011;34485;51.536;3.816;2023-06-24T03:58:29;8.27;;;6.47;;
48685;SDS011;34485;51.536;3.816;2023-06-24T04:00:56;9.67;;;6.27;;
48685;SDS011;34485;51.536;3.816;2023-06-24T04:03:24;15.65;;;6.95;;
48685;SDS011;34485;51.536;3.816;2023-06-24T04:05:54;9.23;;;6.72;;
48685;SDS011;34485;51.536;3.816;2023-06-24T04:08:20;8.97;;;6.60;;
48685;SDS011;34485;51.536;3.816;2023-06-24T04:10:47;8.23;;;6.20;;
48685;SDS011;34485;51.536;3.816;2023-06-24T04:13:12;11.38;;;7.25;;
48685;SDS011;34485;51.536;3.816;2023-06-24T04:15:38;12.37;;;6.77;;
48685;SDS011;34485;51.536;3.816;2023-06-24T04:18:04;7.65;;;5.93;;
48685;SDS011;34485;51.536;3.816;2023-06-24T04:20:29;7.13;;;5.73;;
48685;SDS011;34485;51.536;3.816;2023-06-24T04:22:55;7.97;;;6.60;;
48685;SDS011;34485;51.536;3.816;2023-06-24T04:25:20;10.33;;;7.10;;
48685;SDS011;34485;51.536;3.816;2023-06-24T04:27:46;10.77;;;6.70;;
48685;SDS011;34485;51.536;3.816;2023-06-24T04:30:12;9.43;;;7.20;;
48685;SDS011;34485;51.536;3.816;2023-06-24T04:32:38;12.77;;;7.83;;
48685;SDS011;34485;51.536;3.816;2023-06-24T04:35:03;7.50;;;6.65;;
48685;SDS011;34485;51.536;3.816;2023-06-24T04:37:29;18.33;;;7.10;;
48685;SDS011;34485;51.536;3.816;2023-06-24T04:39:55;9.73;;;6.97;;
48685;SDS011;34485;51.536;3.816;2023-06-24T04:42:21;10.75;;;6.82;;
48685;SDS011;34485;51.536;3.816;2023-06-24T04:44:47;9.95;;;7.55;;
48685;SDS011;34485;51.536;3.816;2023-06-24T04:47:15;8.30;;;7.43;;
48685;SDS011;34485;51.536;3.816;2023-06-24T04:49:44;10.43;;;7.68;;
48685;SDS011;34485;51.536;3.816;2023-06-24T04:52:13;13.20;;;8.00;;
48685;SDS011;34485;51.536;3.816;2023-06-24T04:54:38;7.83;;;6.03;;
48685;SDS011;34485;51.536;3.816;2023-06-24T04:57:06;13.27;;;7.38;;
48685;SDS011;34485;51.536;3.816;2023-06-24T04:59:33;11.35;;;8.45;;
48685;SDS011;34485;51.536;3.816;2023-06-24T05:01:59;12.00;;;7.77;;
48685;SDS011;34485;51.536;3.816;2023-06-24T05:04:25;11.57;;;6.88;;
48685;SDS011;34485;51.536;3.816;2023-06-24T05:06:50;16.53;;;8.10;;
48685;SDS011;34485;51.536;3.816;2023-06-24T05:09:16;9.77;;;7.63;;
48685;SDS011;34485;51.536;3.816;2023-06-24T05:11:42;17.25;;;7.95;;
48685;SDS011;34485;51.536;3.816;2023-06-24T05:14:08;14.00;;;7.95;;
48685;SDS011;34485;51.536;3.816;2023-06-24T05:16:33;9.70;;;7.07;;
48685;SDS011;34485;51.536;3.816;2023-06-24T05:18:59;13.85;;;8.23;;
48685;SDS011;34485;51.536;3.816;2023-06-24T05:21:25;11.93;;;8.00;;
48685;SDS011;34485;51.536;3.816;2023-06-24T05:23:50;15.00;;;8.07;;
48685;SDS011;34485;51.536;3.816;2023-06-24T05:26:16;11.18;;;7.63;;
48685;SDS011;34485;51.536;3.816;2023-06-24T05:28:41;9.30;;;7.40;;
48685;SDS011;34485;51.536;3.816;2023-06-24T05:31:07;10.80;;;8.00;;
48685;SDS011;34485;51.536;3.816;2023-06-24T05:33:33;8.30;;;7.00;;
48685;SDS011;34485;51.536;3.816;2023-06-24T05:35:58;14.17;;;7.60;;
48685;SDS011;34485;51.536;3.816;2023-06-24T05:38:24;8.73;;;7.80;;
48685;SDS011;34485;51.536;3.816;2023-06-24T05:40:49;12.00;;;8.13;;
48685;SDS011;34485;51.536;3.816;2023-06-24T05:43:15;16.02;;;7.60;;
48685;SDS011;34485;51.536;3.816;2023-06-24T05:45:41;9.63;;;7.83;;
48685;SDS011;34485;51.536;3.816;2023-06-24T05:48:06;12.82;;;8.45;;
48685;SDS011;34485;51.536;3.816;2023-06-24T05:50:32;9.87;;;8.23;;
48685;SDS011;34485;51.536;3.816;2023-06-24T05:52:57;11.60;;;8.93;;
48685;SDS011;34485;51.536;3.816;2023-06-24T05:55:23;14.13;;;8.85;;
48685;SDS011;34485;51.536;3.816;2023-06-24T05:57:49;10.27;;;7.93;;
48685;SDS011;34485;51.536;3.816;2023-06-24T06:00:14;12.95;;;8.40;;
48685;SDS011;34485;51.536;3.816;2023-06-24T06:02:42;11.15;;;8.60;;
48685;SDS011;34485;51.536;3.816;2023-06-24T06:05:08;12.20;;;8.53;;
48685;SDS011;34485;51.536;3.816;2023-06-24T06:07:33;12.57;;;9.02;;
48685;SDS011;34485;51.536;3.816;2023-06-24T06:10:00;11.20;;;8.80;;
48685;SDS011;34485;51.536;3.816;2023-06-24T06:12:25;16.33;;;8.75;;
48685;SDS011;34485;51.536;3.816;2023-06-24T06:14:51;15.77;;;9.17;;
48685;SDS011;34485;51.536;3.816;2023-06-24T06:17:17;13.77;;;8.02;;
48685;SDS011;34485;51.536;3.816;2023-06-24T06:19:42;13.40;;;9.77;;
48685;SDS011;34485;51.536;3.816;2023-06-24T06:22:11;12.52;;;9.27;;
48685;SDS011;34485;51.536;3.816;2023-06-24T06:24:37;14.32;;;9.63;;
48685;SDS011;34485;51.536;3.816;2023-06-24T06:27:03;12.90;;;9.00;;
48685;SDS011;34485;51.536;3.816;2023-06-24T06:29:29;15.38;;;8.65;;
48685;SDS011;34485;51.536;3.816;2023-06-24T06:31:55;13.50;;;9.03;;
48685;SDS011;34485;51.536;3.816;2023-06-24T06:34:21;12.48;;;8.80;;
48685;SDS011;34485;51.536;3.816;2023-06-24T06:36:47;15.77;;;9.25;;
48685;SDS011;34485;51.536;3.816;2023-06-24T06:39:13;14.77;;;10.37;;
48685;SDS011;34485;51.536;3.816;2023-06-24T06:41:38;12.03;;;9.00;;
48685;SDS011;34485;51.536;3.816;2023-06-24T06:44:04;13.30;;;9.25;;
48685;SDS011;34485;51.536;3.816;2023-06-24T06:46:30;14.53;;;9.40;;
48685;SDS011;34485;51.536;3.816;2023-06-24T06:48:55;14.13;;;9.75;;
48685;SDS011;34485;51.536;3.816;2023-06-24T06:51:21;14.73;;;9.50;;
48685;SDS011;34485;51.536;3.816;2023-06-24T06:53:49;15.52;;;9.10;;
48685;SDS011;34485;51.536;3.816;2023-06-24T06:56:22;14.18;;;9.57;;
48685;SDS011;34485;51.536;3.816;2023-06-24T06:58:52;15.50;;;9.07;;
48685;SDS011;34485;51.536;3.816;2023-06-24T07:01:18;15.13;;;8.97;;
48685;SDS011;34485;51.536;3.816;2023-06-24T07:03:44;13.95;;;9.55;;
48685;SDS011;34485;51.536;3.816;2023-06-24T07:06:10;12.07;;;9.55;;
48685;SDS011;34485;51.536;3.816;2023-06-24T07:08:36;12.13;;;9.70;;
48685;SDS011;34485;51.536;3.816;2023-06-24T07:11:02;12.50;;;8.57;;
48685;SDS011;34485;51.536;3.816;2023-06-24T07:13:28;18.97;;;10.20;;
48685;SDS011;34485;51.536;3.816;2023-06-24T07:15:53;15.73;;;9.68;;
48685;SDS011;34485;51.536;3.816;2023-06-24T07:18:19;13.77;;;9.40;;
48685;SDS011;34485;51.536;3.816;2023-06-24T07:20:45;15.38;;;9.23;;
48685;SDS011;34485;51.536;3.816;2023-06-24T07:23:10;13.07;;;8.77;;
48685;SDS011;34485;51.536;3.816;2023-06-24T07:25:36;16.35;;;9.93;;
48685;SDS011;34485;51.536;3.816;2023-06-24T07:28:02;11.40;;;8.23;;
48685;SDS011;34485;51.536;3.816;2023-06-24T07:30:28;9.65;;;8.30;;
48685;SDS011;34485;51.536;3.816;2023-06-24T07:32:53;9.95;;;8.10;;
48685;SDS011;34485;51.536;3.816;2023-06-24T07:35:19;10.13;;;7.60;;
48685;SDS011;34485;51.536;3.816;2023-06-24T07:37:45;10.50;;;7.40;;
48685;SDS011;34485;51.536;3.816;2023-06-24T07:40:10;10.85;;;8.00;;
48685;SDS011;34485;51.536;3.816;2023-06-24T07:42:36;8.60;;;7.70;;
48685;SDS011;34485;51.536;3.816;2023-06-24T07:45:02;10.10;;;7.77;;
48685;SDS011;34485;51.536;3.816;2023-06-24T07:47:28;9.45;;;6.88;;
48685;SDS011;34485;51.536;3.816;2023-06-24T07:49:54;7.90;;;7.07;;
48685;SDS011;34485;51.536;3.816;2023-06-24T07:52:19;8.30;;;7.50;;
48685;SDS011;34485;51.536;3.816;2023-06-24T07:54:45;9.70;;;8.70;;
48685;SDS011;34485;51.536;3.816;2023-06-24T07:57:10;9.05;;;7.72;;
48685;SDS011;34485;51.536;3.816;2023-06-24T07:59:36;11.23;;;8.40;;
48685;SDS011;34485;51.536;3.816;2023-06-24T08:02:02;9.32;;;8.27;;
48685;SDS011;34485;51.536;3.816;2023-06-24T08:04:27;8.80;;;8.10;;
48685;SDS011;34485;51.536;3.816;2023-06-24T08:06:53;9.15;;;8.35;;
48685;SDS011;34485;51.536;3.816;2023-06-24T08:09:19;11.25;;;8.60;;
48685;SDS011;34485;51.536;3.816;2023-06-24T08:11:45;8.13;;;7.33;;
48685;SDS011;34485;51.536;3.816;2023-06-24T08:14:10;10.02;;;9.02;;
48685;SDS011;34485;51.536;3.816;2023-06-24T08:16:36;11.53;;;9.03;;
48685;SDS011;34485;51.536;3.816;2023-06-24T08:19:03;10.45;;;9.05;;
48685;SDS011;34485;51.536;3.816;2023-06-24T08:21:28;9.90;;;9.00;;
48685;SDS011;34485;51.536;3.816;2023-06-24T08:23:54;9.65;;;8.75;;
48685;SDS011;34485;51.536;3.816;2023-06-24T08:26:20;10.63;;;9.53;;
48685;SDS011;34485;51.536;3.816;2023-06-24T08:28:47;12.55;;;8.85;;
48685;SDS011;34485;51.536;3.816;2023-06-24T08:31:13;9.52;;;8.70;;
48685;SDS011;34485;51.536;3.816;2023-06-24T08:33:38;9.90;;;8.90;;
48685;SDS011;34485;51.536;3.816;2023-06-24T08:36:08;11.18;;;10.07;;
48685;SDS011;34485;51.536;3.816;2023-06-24T08:38:33;9.93;;;9.07;;
48685;SDS011;34485;51.536;3.816;2023-06-24T08:40:59;9.60;;;8.60;;
48685;SDS011;34485;51.536;3.816;2023-06-24T08:43:25;9.30;;;8.40;;
48685;SDS011;34485;51.536;3.816;2023-06-24T08:45:50;12.63;;;9.10;;
48685;SDS011;34485;51.536;3.816;2023-06-24T08:48:16;9.68;;;8.77;;
48685;SDS011;34485;51.536;3.816;2023-06-24T08:50:45;9.57;;;8.68;;
48685;SDS011;34485;51.536;3.816;2023-06-24T08:53:15;10.33;;;9.43;;
48685;SDS011;34485;51.536;3.816;2023-06-24T08:55:45;10.10;;;8.90;;
48685;SDS011;34485;51.536;3.816;2023-06-24T08:58:13;9.70;;;8.88;;
48685;SDS011;34485;51.536;3.816;2023-06-24T09:00:39;9.38;;;8.38;;
48685;SDS011;34485;51.536;3.816;2023-06-24T09:03:07;8.57;;;7.75;;
48685;SDS011;34485;51.536;3.816;2023-06-24T09:05:33;8.70;;;7.77;;
48685;SDS011;34485;51.536;3.816;2023-06-24T09:07:58;8.17;;;7.57;;
48685;SDS011;34485;51.536;3.816;2023-06-24T09:10:34;8.00;;;7.30;;
48685;SDS011;34485;51.536;3.816;2023-06-24T09:13:05;9.05;;;8.25;;
48685;SDS011;34485;51.536;3.816;2023-06-24T09:15:32;10.87;;;7.90;;
48685;SDS011;34485;51.536;3.816;2023-06-24T09:17:58;9.70;;;8.80;;
48685;SDS011;34485;51.536;3.816;2023-06-24T09:20:25;9.15;;;8.38;;
48685;SDS011;34485;51.536;3.816;2023-06-24T09:22:52;9.52;;;8.73;;
48685;SDS011;34485;51.536;3.816;2023-06-24T09:25:23;10.48;;;9.48;;
48685;SDS011;34485;51.536;3.816;2023-06-24T09:27:49;10.60;;;9.50;;
48685;SDS011;34485;51.536;3.816;2023-06-24T09:30:18;10.38;;;9.40;;
48685;SDS011;34485;51.536;3.816;2023-06-24T09:32:45;9.75;;;8.15;;
48685;SDS011;34485;51.536;3.816;2023-06-24T09:35:12;10.97;;;9.93;;
48685;SDS011;34485;51.536;3.816;2023-06-24T09:37:38;11.15;;;10.15;;
48685;SDS011;34485;51.536;3.816;2023-06-24T09:40:04;10.60;;;9.60;;
48685;SDS011;34485;51.536;3.816;2023-06-24T09:42:31;10.02;;;9.00;;
48685;SDS011;34485;51.536;3.816;2023-06-24T09:44:57;9.93;;;8.93;;
48685;SDS011;34485;51.536;3.816;2023-06-24T09:47:23;9.90;;;9.02;;
48685;SDS011;34485;51.536;3.816;2023-06-24T09:49:53;9.68;;;8.77;;
48685;SDS011;34485;51.536;3.816;2023-06-24T09:52:19;11.17;;;9.93;;
48685;SDS011;34485;51.536;3.816;2023-06-24T09:54:46;11.20;;;9.80;;
48685;SDS011;34485;51.536;3.816;2023-06-24T09:57:17;11.07;;;9.63;;
48685;SDS011;34485;51.536;3.816;2023-06-24T09:59:47;9.95;;;9.02;;
48685;SDS011;34485;51.536;3.816;2023-06-24T10:02:14;10.57;;;9.65;;
48685;SDS011;34485;51.536;3.816;2023-06-24T10:04:41;10.87;;;9.87;;
48685;SDS011;34485;51.536;3.816;2023-06-24T10:07:07;10.77;;;9.80;;
48685;SDS011;34485;51.536;3.816;2023-06-24T10:09:33;11.95;;;10.10;;
48685;SDS011;34485;51.536;3.816;2023-06-24T10:11:59;12.37;;;10.23;;
48685;SDS011;34485;51.536;3.816;2023-06-24T10:14:25;11.05;;;10.02;;
48685;SDS011;34485;51.536;3.816;2023-06-24T10:16:50;11.50;;;10.30;;
48685;SDS011;34485;51.536;3.816;2023-06-24T10:19:19;11.75;;;10.55;;
48685;SDS011;34485;51.536;3.816;2023-06-24T10:24:28;14.13;;;10.90;;
48685;SDS011;34485;51.536;3.816;2023-06-24T10:26:54;11.85;;;10.73;;
48685;SDS011;34485;51.536;3.816;2023-06-24T10:29:30;11.55;;;10.32;;
48685;SDS011;34485;51.536;3.816;2023-06-24T10:31:56;12.05;;;10.95;;
48685;SDS011;34485;51.536;3.816;2023-06-24T10:34:40;13.40;;;12.00;;
48685;SDS011;34485;51.536;3.816;2023-06-24T10:39:36;12.43;;;11.23;;
48685;SDS011;34485;51.536;3.816;2023-06-24T10:44:52;12.02;;;10.93;;
48685;SDS011;34485;51.536;3.816;2023-06-24T10:47:19;12.75;;;11.48;;
48685;SDS011;34485;51.536;3.816;2023-06-24T10:49:46;12.00;;;10.90;;
48685;SDS011;34485;51.536;3.816;2023-06-24T10:52:12;11.60;;;10.40;;
48685;SDS011;34485;51.536;3.816;2023-06-24T10:54:38;15.68;;;11.07;;
48685;SDS011;34485;51.536;3.816;2023-06-24T10:57:05;13.88;;;11.10;;
48685;SDS011;34485;51.536;3.816;2023-06-24T10:59:35;14.35;;;10.68;;
48685;SDS011;34485;51.536;3.816;2023-06-24T11:02:07;11.57;;;10.10;;
48685;SDS011;34485;51.536;3.816;2023-06-24T11:04:41;10.90;;;9.90;;
48685;SDS011;34485;51.536;3.816;2023-06-24T11:07:13;11.70;;;10.07;;
48685;SDS011;34485;51.536;3.816;2023-06-24T11:09:40;10.80;;;9.77;;
48685;SDS011;34485;51.536;3.816;2023-06-24T11:12:10;10.60;;;9.60;;
48685;SDS011;34485;51.536;3.816;2023-06-24T11:14:37;11.47;;;10.37;;
48685;SDS011;34485;51.536;3.816;2023-06-24T11:17:03;11.20;;;9.88;;
48685;SDS011;34485;51.536;3.816;2023-06-24T11:19:29;9.90;;;8.90;;
48685;SDS011;34485;51.536;3.816;2023-06-24T11:22:02;11.90;;;10.70;;
48685;SDS011;34485;51.536;3.816;2023-06-24T11:24:28;14.27;;;10.57;;
48685;SDS011;34485;51.536;3.816;2023-06-24T11:26:54;9.55;;;8.73;;
48685;SDS011;34485;51.536;3.816;2023-06-24T11:29:21;10.77;;;9.77;;
48685;SDS011;34485;51.536;3.816;2023-06-24T11:31:48;13.57;;;12.30;;
48685;SDS011;34485;51.536;3.816;2023-06-24T11:34:14;10.55;;;9.45;;
48685;SDS011;34485;51.536;3.816;2023-06-24T11:36:40;10.98;;;9.88;;
48685;SDS011;34485;51.536;3.816;2023-06-24T11:39:06;10.43;;;9.37;;
48685;SDS011;34485;51.536;3.816;2023-06-24T11:41:31;9.77;;;8.77;;
48685;SDS011;34485;51.536;3.816;2023-06-24T11:43:57;11.40;;;10.10;;
48685;SDS011;34485;51.536;3.816;2023-06-24T11:46:24;10.90;;;9.02;;
48685;SDS011;34485;51.536;3.816;2023-06-24T11:49:06;11.25;;;8.63;;
48685;SDS011;34485;51.536;3.816;2023-06-24T11:51:32;9.40;;;8.07;;
48685;SDS011;34485;51.536;3.816;2023-06-24T11:53:59;11.07;;;8.87;;
48685;SDS011;34485;51.536;3.816;2023-06-24T11:56:36;10.20;;;8.65;;
48685;SDS011;34485;51.536;3.816;2023-06-24T11:59:05;8.38;;;7.53;;
48685;SDS011;34485;51.536;3.816;2023-06-24T12:01:43;11.15;;;9.18;;
48685;SDS011;34485;51.536;3.816;2023-06-24T12:04:10;9.10;;;8.13;;
48685;SDS011;34485;51.536;3.816;2023-06-24T12:06:42;8.57;;;7.77;;
48685;SDS011;34485;51.536;3.816;2023-06-24T12:09:09;9.00;;;8.10;;
48685;SDS011;34485;51.536;3.816;2023-06-24T12:11:36;11.93;;;7.85;;
48685;SDS011;34485;51.536;3.816;2023-06-24T12:14:02;8.88;;;6.60;;
48685;SDS011;34485;51.536;3.816;2023-06-24T12:16:28;7.30;;;6.53;;
48685;SDS011;34485;51.536;3.816;2023-06-24T12:18:54;10.20;;;6.83;;
48685;SDS011;34485;51.536;3.816;2023-06-24T12:21:20;10.55;;;7.75;;
48685;SDS011;34485;51.536;3.816;2023-06-24T12:23:46;11.17;;;7.70;;
48685;SDS011;34485;51.536;3.816;2023-06-24T12:26:12;7.70;;;6.65;;
48685;SDS011;34485;51.536;3.816;2023-06-24T12:28:38;9.48;;;7.25;;
48685;SDS011;34485;51.536;3.816;2023-06-24T12:31:03;8.73;;;6.97;;
48685;SDS011;34485;51.536;3.816;2023-06-24T12:33:32;8.80;;;7.03;;
48685;SDS011;34485;51.536;3.816;2023-06-24T12:35:58;9.43;;;7.10;;
48685;SDS011;34485;51.536;3.816;2023-06-24T12:38:24;8.57;;;7.10;;
48685;SDS011;34485;51.536;3.816;2023-06-24T12:40:49;9.17;;;6.83;;
48685;SDS011;34485;51.536;3.816;2023-06-24T12:43:15;11.10;;;7.00;;
48685;SDS011;34485;51.536;3.816;2023-06-24T12:45:41;13.10;;;7.20;;
48685;SDS011;34485;51.536;3.816;2023-06-24T12:48:10;8.88;;;7.13;;
48685;SDS011;34485;51.536;3.816;2023-06-24T12:50:36;11.18;;;6.65;;
48685;SDS011;34485;51.536;3.816;2023-06-24T12:53:02;6.87;;;6.17;;
48685;SDS011;34485;51.536;3.816;2023-06-24T12:55:28;8.15;;;6.60;;
48685;SDS011;34485;51.536;3.816;2023-06-24T12:57:54;11.90;;;7.15;;
48685;SDS011;34485;51.536;3.816;2023-06-24T13:00:20;6.40;;;5.50;;
48685;SDS011;34485;51.536;3.816;2023-06-24T13:02:47;9.27;;;6.17;;
48685;SDS011;34485;51.536;3.816;2023-06-24T13:05:13;8.52;;;6.65;;
48685;SDS011;34485;51.536;3.816;2023-06-24T13:07:38;7.60;;;6.80;;
48685;SDS011;34485;51.536;3.816;2023-06-24T13:10:04;10.53;;;6.93;;
48685;SDS011;34485;51.536;3.816;2023-06-24T13:12:33;9.45;;;6.47;;
48685;SDS011;34485;51.536;3.816;2023-06-24T13:15:00;8.68;;;6.43;;
48685;SDS011;34485;51.536;3.816;2023-06-24T13:17:26;10.82;;;7.03;;
48685;SDS011;34485;51.536;3.816;2023-06-24T13:19:52;9.23;;;7.27;;
48685;SDS011;34485;51.536;3.816;2023-06-24T13:22:18;8.63;;;5.90;;
48685;SDS011;34485;51.536;3.816;2023-06-24T13:24:44;9.30;;;6.70;;
48685;SDS011;34485;51.536;3.816;2023-06-24T13:27:10;10.35;;;7.20;;
48685;SDS011;34485;51.536;3.816;2023-06-24T13:29:36;8.23;;;6.65;;
48685;SDS011;34485;51.536;3.816;2023-06-24T13:32:02;10.05;;;7.70;;
48685;SDS011;34485;51.536;3.816;2023-06-24T13:34:28;7.72;;;6.40;;
48685;SDS011;34485;51.536;3.816;2023-06-24T13:36:53;8.27;;;7.40;;
48685;SDS011;34485;51.536;3.816;2023-06-24T13:39:19;7.17;;;5.83;;
48685;SDS011;34485;51.536;3.816;2023-06-24T13:41:48;8.23;;;5.60;;
48685;SDS011;34485;51.536;3.816;2023-06-24T13:44:14;6.47;;;5.13;;
48685;SDS011;34485;51.536;3.816;2023-06-24T13:46:40;6.93;;;5.28;;
48685;SDS011;34485;51.536;3.816;2023-06-24T13:49:06;6.83;;;5.87;;
48685;SDS011;34485;51.536;3.816;2023-06-24T13:51:32;5.10;;;4.60;;
48685;SDS011;34485;51.536;3.816;2023-06-24T13:53:58;7.53;;;5.25;;
48685;SDS011;34485;51.536;3.816;2023-06-24T13:56:24;9.53;;;5.40;;
48685;SDS011;34485;51.536;3.816;2023-06-24T13:58:51;7.13;;;5.55;;
48685;SDS011;34485;51.536;3.816;2023-06-24T14:01:18;6.88;;;5.10;;
48685;SDS011;34485;51.536;3.816;2023-06-24T14:03:44;16.55;;;7.93;;
48685;SDS011;34485;51.536;3.816;2023-06-24T14:06:10;9.63;;;7.10;;
48685;SDS011;34485;51.536;3.816;2023-06-24T14:08:38;7.53;;;6.77;;
48685;SDS011;34485;51.536;3.816;2023-06-24T14:11:04;8.13;;;6.63;;
48685;SDS011;34485;51.536;3.816;2023-06-24T14:13:30;10.60;;;7.43;;
48685;SDS011;34485;51.536;3.816;2023-06-24T14:15:56;10.07;;;6.88;;
48685;SDS011;34485;51.536;3.816;2023-06-24T14:18:22;11.40;;;7.15;;
48685;SDS011;34485;51.536;3.816;2023-06-24T14:20:48;9.90;;;7.17;;
48685;SDS011;34485;51.536;3.816;2023-06-24T14:23:14;11.48;;;7.38;;
48685;SDS011;34485;51.536;3.816;2023-06-24T14:25:40;10.57;;;6.90;;
48685;SDS011;34485;51.536;3.816;2023-06-24T14:28:06;9.17;;;7.23;;
48685;SDS011;34485;51.536;3.816;2023-06-24T14:30:32;7.60;;;6.75;;
48685;SDS011;34485;51.536;3.816;2023-06-24T14:32:59;9.45;;;6.60;;
48685;SDS011;34485;51.536;3.816;2023-06-24T14:35:25;12.95;;;7.68;;
48685;SDS011;34485;51.536;3.816;2023-06-24T14:37:51;10.50;;;6.40;;
48685;SDS011;34485;51.536;3.816;2023-06-24T14:40:17;7.40;;;6.70;;
48685;SDS011;34485;51.536;3.816;2023-06-24T14:42:42;13.73;;;7.50;;
48685;SDS011;34485;51.536;3.816;2023-06-24T14:45:08;10.77;;;6.78;;
48685;SDS011;34485;51.536;3.816;2023-06-24T14:47:34;9.32;;;7.22;;